Candace — WDB8245 — position and weather

sailwx.info

Track history (hours):
 
Tides and Currents Weather Stations Pressure Air Temp Water Temp Dewpoint Dewpoint Depression Visibility Wind Speed Wind Dir Waves Ship Positions

Candace

Owner: WEEKS MARINE, INC., CRANFORD, NJ. More information available from US FCC via Universal Licensing System and Coast Guard Vessel Documentation Center.

Last reported at 2018-May-26 04:00 UTC. Time now 2018-May-26 04:05 UTC.
Position N 39°41' W 074°03'.

Length 20 m.

Type: Towing. MMSI: 366955450.

Date/timePositionNaut miles runAvg speedWind from/ knotsBaromVisibWave heightAir tempDewpointWater temp
2018-May-26 04:00N 39°41' W 074°03'0 0.0
2018-May-26 03:29N 39°41' W 074°03'0 0.0
2018-May-26 02:56N 39°41' W 074°03'0 0.0
2018-May-26 02:26N 39°41' W 074°03'0 0.0
2018-May-26 02:00N 39°41' W 074°03'0 0.0
2018-May-26 01:29N 39°41' W 074°03'0 0.0
2018-May-26 00:56N 39°41' W 074°03'0 0.0
2018-May-26 00:30N 39°41' W 074°03'0 0.0
2018-May-26 00:00N 39°41' W 074°03'0 0.0
2018-May-25 23:27N 39°41' W 074°03'0 0.0
2018-May-25 22:55N 39°41' W 074°03'0 0.0
2018-May-25 22:30N 39°41' W 074°03'0 0.0
2018-May-25 21:58N 39°41' W 074°03'0 0.5
2018-May-25 21:31N 39°41' W 074°03'0 0.1
2018-May-25 21:00N 39°41' W 074°03'0 0.1
2018-May-25 20:30N 39°41' W 074°03'0 0.3
2018-May-25 20:00N 39°41' W 074°03'0 0.3
2018-May-25 19:30N 39°41' W 074°03'0 0.1
2018-May-25 19:00N 39°41' W 074°03'0 0.0
2018-May-25 18:30N 39°41' W 074°03'0 0.0
2018-May-25 17:59N 39°41' W 074°03'0 0.0
2018-May-25 17:30N 39°41' W 074°03'0 0.1
2018-May-25 17:00N 39°41' W 074°03'0 0.1
2018-May-25 16:29N 39°41' W 074°03'0 0.1
2018-May-25 16:00N 39°41' W 074°03'1 1.8
2018-May-25 15:30N 39°41' W 074°03'1 1.0
2018-May-25 15:00N 39°41' W 074°03'0 0.2
2018-May-25 14:27N 39°41' W 074°03'0 0.6
2018-May-25 14:00N 39°41' W 074°03'2 3.9
2018-May-25 13:30N 39°42' W 074°05'2 3.0
2018-May-25 13:00N 39°43' W 074°05'2 3.6
2018-May-25 12:30N 39°45' W 074°04'2 3.6
2018-May-25 11:57N 39°46' W 074°06'0 0.5
2018-May-25 11:30N 39°46' W 074°07'1 1.6
2018-May-25 10:59N 39°45' W 074°07'0 0.0
2018-May-25 10:30N 39°45' W 074°07'0 0.0
2018-May-25 10:01N 39°45' W 074°07'0 0.0
2018-May-25 09:29N 39°45' W 074°07'0 0.0
2018-May-25 09:00N 39°45' W 074°07'0 0.0
2018-May-25 08:30N 39°45' W 074°07'0 0.0
2018-May-25 08:00N 39°45' W 074°07'0 0.0
2018-May-25 07:29N 39°45' W 074°07'0 0.0
2018-May-25 07:00N 39°45' W 074°07'0 0.0
2018-May-25 06:30N 39°45' W 074°07'0 0.0
2018-May-25 06:00N 39°45' W 074°07'0 0.0
2018-May-25 05:30N 39°45' W 074°07'0 0.0
2018-May-25 05:00N 39°45' W 074°07'0 0.0
2018-May-25 04:30N 39°45' W 074°07'0 0.0
2018-May-25 04:00N 39°45' W 074°07'0 0.0
2018-May-25 03:29N 39°45' W 074°07'0 0.0
2018-May-25 03:00N 39°45' W 074°07'0 0.0
2018-May-25 02:30N 39°45' W 074°07'0 0.0
2018-May-25 02:01N 39°45' W 074°07'0 0.0
2018-May-25 01:30N 39°45' W 074°07'0 0.0
2018-May-25 01:00N 39°45' W 074°07'0 0.0
2018-May-25 00:29N 39°45' W 074°07'0 0.0
2018-May-24 23:57N 39°45' W 074°07'0 0.0
2018-May-24 23:30N 39°45' W 074°07'0 0.0
2018-May-24 23:00N 39°45' W 074°07'0 0.0
2018-May-24 22:29N 39°45' W 074°07'0 0.0
2018-May-24 22:00N 39°45' W 074°07'0 0.0
2018-May-24 21:26N 39°45' W 074°07'0 0.0
2018-May-24 20:53N 39°45' W 074°07'0 0.0
2018-May-24 20:28N 39°45' W 074°07'0 0.0
2018-May-24 19:56N 39°45' W 074°07'0 0.0
2018-May-24 19:22N 39°45' W 074°07'0 0.0
2018-May-24 19:00N 39°45' W 074°07'0 0.0
2018-May-24 18:29N 39°45' W 074°07'0 0.0
2018-May-24 17:58N 39°45' W 074°07'1 1.5
2018-May-24 17:30N 39°46' W 074°07'2 4.5
2018-May-24 17:00N 39°45' W 074°04'3 6.2
2018-May-24 16:29N 39°42' W 074°06'1 2.6
2018-May-24 16:00N 39°41' W 074°07'0 0.2
2018-May-24 15:29N 39°41' W 074°07'0 0.3
2018-May-24 15:00N 39°41' W 074°07'0 0.2
2018-May-24 14:30N 39°41' W 074°07'0 0.3
2018-May-24 13:58N 39°41' W 074°07'2 3.6
2018-May-24 13:29N 39°43' W 074°06'3 0.6
2018-May-24 08:58N 39°45' W 074°07'0 0.0
2018-May-24 08:29N 39°45' W 074°07'0 0.0
2018-May-24 07:59N 39°45' W 074°07'0 0.0
2018-May-24 07:29N 39°45' W 074°07'0 0.0
2018-May-24 07:00N 39°45' W 074°07'0 0.0
2018-May-24 06:30N 39°45' W 074°07'0 0.0
2018-May-24 05:58N 39°45' W 074°07'0 0.0
2018-May-24 05:28N 39°45' W 074°07'0 0.0
2018-May-24 05:00N 39°45' W 074°07'0 0.0
2018-May-24 04:30N 39°45' W 074°07'0 0.0
2018-May-24 03:59N 39°45' W 074°07'0 0.0
2018-May-24 03:28N 39°45' W 074°07'0 0.0
2018-May-24 02:58N 39°45' W 074°07'0 0.0
2018-May-24 02:25N 39°45' W 074°07'0 0.0
2018-May-24 02:00N 39°45' W 074°07'0 0.0
2018-May-24 01:30N 39°45' W 074°07'0 0.0
2018-May-24 00:57N 39°45' W 074°07'0 0.0
2018-May-24 00:29N 39°45' W 074°07'0 0.0
2018-May-24 00:00N 39°45' W 074°07'0 0.0
2018-May-23 23:26N 39°45' W 074°07'0 0.0
2018-May-23 23:00N 39°45' W 074°07'0 0.0
2018-May-23 22:27N 39°45' W 074°07'0 0.0
2018-May-23 21:59N 39°45' W 074°07'0 0.0
2018-May-23 21:29N 39°45' W 074°07'0 0.0
2018-May-23 21:00N 39°45' W 074°07'0 0.0
2018-May-23 20:30N 39°45' W 074°07'2 3.0
2018-May-23 19:58N 39°45' W 074°05'3 6.3
2018-May-23 19:28N 39°42' W 074°03'1 3.1
2018-May-23 19:00N 39°41' W 074°03'0 0.7
2018-May-23 18:29N 39°40' W 074°03'2 3.1
2018-May-23 17:55N 39°41' W 074°06'2 3.9
2018-May-23 17:29N 39°43' W 074°06'2 3.7
2018-May-23 17:00N 39°44' W 074°04'2 4.5
2018-May-23 16:30N 39°45' W 074°02'2 4.6
2018-May-23 16:00N 39°48' W 074°02'3 4.6
2018-May-23 15:25N 39°50' W 074°01'6 0.5
2018-May-23 02:11N 39°46' W 074°07'0 0.0
2018-May-23 01:57N 39°46' W 074°07'0 0.0
2018-May-23 01:27N 39°46' W 074°07'0 0.0
2018-May-23 00:58N 39°46' W 074°07'0 0.0
2018-May-23 00:30N 39°46' W 074°07'0 0.0
2018-May-22 23:46N 39°46' W 074°07'0 0.0
2018-May-22 23:27N 39°46' W 074°07'0 0.0
2018-May-22 22:41N 39°46' W 074°07'0 0.0
2018-May-22 22:30N 39°46' W 074°07'0 0.0
2018-May-22 21:57N 39°46' W 074°07'0 0.0
2018-May-22 21:26N 39°46' W 074°07'0 0.0
2018-May-22 21:00N 39°46' W 074°07'0 0.0
2018-May-22 20:30N 39°46' W 074°07'0 0.0
2018-May-22 19:58N 39°46' W 074°07'0 0.0
2018-May-22 19:28N 39°46' W 074°07'0 0.1
2018-May-22 19:00N 39°46' W 074°07'0 0.1
2018-May-22 18:26N 39°46' W 074°07'0 0.8
2018-May-22 18:00N 39°46' W 074°07'3 4.8
2018-May-22 17:28N 39°45' W 074°04'4 7.4
2018-May-22 16:57N 39°41' W 074°04'0 1.0
2018-May-22 16:30N 39°41' W 074°04'1 1.0
2018-May-22 15:59N 39°40' W 074°04'1 2.3
2018-May-22 15:25N 39°41' W 074°06'2 4.0
2018-May-22 14:59N 39°40' W 074°08'2 4.5
2018-May-22 14:29N 39°38' W 074°09'2 4.4
2018-May-22 13:55N 39°36' W 074°11'2 4.3
2018-May-22 13:30N 39°34' W 074°12'3 4.1
2018-May-22 12:53N 39°32' W 074°14'1 0.4
2018-May-22 10:34N 39°32' W 074°14'0 0.4
2018-May-22 10:30N 39°32' W 074°14'2 4.9
2018-May-22 10:00N 39°34' W 074°12'4 8.5
2018-May-22 09:30N 39°37' W 074°09'4 7.4
2018-May-22 09:00N 39°41' W 074°07'4 7.2
2018-May-22 08:30N 39°44' W 074°05'2 3.9
2018-May-22 07:57N 39°46' W 074°06'1 1.9
2018-May-22 07:30N 39°46' W 074°07'0 0.7
2018-May-22 07:00N 39°46' W 074°07'1 1.1
2018-May-22 06:30N 39°45' W 074°07'0 0.0
2018-May-22 06:00N 39°45' W 074°07'0 0.0
2018-May-22 05:30N 39°45' W 074°07'0 0.0
2018-May-22 05:00N 39°45' W 074°07'0 0.0
2018-May-22 04:30N 39°45' W 074°07'0 0.0
2018-May-22 04:00N 39°45' W 074°07'0 0.0
2018-May-22 03:30N 39°45' W 074°07'0 0.0
2018-May-22 03:00N 39°45' W 074°07'0 0.0
2018-May-22 02:30N 39°45' W 074°07'0 0.0
2018-May-22 02:00N 39°45' W 074°07'0 0.0
2018-May-22 01:29N 39°45' W 074°07'0 0.0
2018-May-22 00:56N 39°45' W 074°07'0 0.0
2018-May-22 00:29N 39°45' W 074°07'0 0.0
2018-May-22 00:00N 39°45' W 074°07'0 0.0
2018-May-21 23:28N 39°45' W 074°07'0 0.0
2018-May-21 22:54N 39°45' W 074°07'0 0.0
2018-May-21 22:28N 39°45' W 074°07'0 0.0
2018-May-21 21:58N 39°45' W 074°07'0 0.0
2018-May-21 21:30N 39°45' W 074°07'0 0.0
2018-May-21 21:01N 39°45' W 074°07'0 0.0
2018-May-21 20:29N 39°45' W 074°07'0 0.0
2018-May-21 20:00N 39°45' W 074°07'0 0.0
2018-May-21 19:29N 39°45' W 074°07'0 0.0
2018-May-21 18:54N 39°45' W 074°07'0 0.0
2018-May-21 18:29N 39°45' W 074°07'0 0.0
2018-May-21 18:00N 39°45' W 074°07'0 0.0
2018-May-21 17:29N 39°45' W 074°07'0 0.0
2018-May-21 16:54N 39°45' W 074°07'0 0.0
2018-May-21 16:26N 39°45' W 074°07'0 0.0
2018-May-21 15:59N 39°45' W 074°07'0 0.0
2018-May-21 15:29N 39°45' W 074°07'0 0.0
2018-May-21 15:00N 39°45' W 074°07'0 0.0
2018-May-21 14:30N 39°45' W 074°07'0 0.0
2018-May-21 13:59N 39°45' W 074°07'0 0.0
2018-May-21 13:31N 39°45' W 074°07'0 0.0
2018-May-21 12:59N 39°45' W 074°07'0 0.0
2018-May-21 12:30N 39°45' W 074°07'0 0.0
2018-May-21 12:00N 39°45' W 074°07'0 0.0
2018-May-21 11:30N 39°45' W 074°07'0 0.0
2018-May-21 10:59N 39°45' W 074°07'0 0.0
2018-May-21 10:28N 39°45' W 074°07'0 0.0
2018-May-21 10:00N 39°45' W 074°07'0 0.0
2018-May-21 09:29N 39°45' W 074°07'0 0.0
2018-May-21 08:57N 39°45' W 074°07'0 0.0
2018-May-21 08:29N 39°45' W 074°07'0 0.0
2018-May-21 08:00N 39°45' W 074°07'0 0.0
2018-May-21 07:29N 39°45' W 074°07'0 0.0
2018-May-21 07:00N 39°45' W 074°07'0 0.0
2018-May-21 06:29N 39°45' W 074°07'0 0.0
2018-May-21 06:00N 39°45' W 074°07'0 0.0
2018-May-21 05:30N 39°45' W 074°07'0 0.0
2018-May-21 04:59N 39°45' W 074°07'0 0.0
2018-May-21 04:27N 39°45' W 074°07'0 0.0
2018-May-21 03:57N 39°45' W 074°07'0 0.0
2018-May-21 03:29N 39°45' W 074°07'0 0.0
2018-May-21 02:59N 39°45' W 074°07'0 0.0
2018-May-21 02:30N 39°45' W 074°07'0 0.0
2018-May-21 02:00N 39°45' W 074°07'0 0.0
2018-May-21 01:28N 39°45' W 074°07'0 0.0
2018-May-21 01:00N 39°45' W 074°07'0 0.0
2018-May-21 00:27N 39°45' W 074°07'0 0.0
2018-May-20 23:59N 39°45' W 074°07'0 0.0
2018-May-20 23:28N 39°45' W 074°07'0 0.0
2018-May-20 22:58N 39°45' W 074°07'0 0.0
2018-May-20 22:30N 39°45' W 074°07'0 0.0
2018-May-20 22:00N 39°45' W 074°07'0 0.0
2018-May-20 21:28N 39°45' W 074°07'0 0.0
2018-May-20 20:59N 39°45' W 074°07'0 0.0
2018-May-20 20:27N 39°45' W 074°07'0 0.0
2018-May-20 19:58N 39°45' W 074°07'0 0.0
2018-May-20 19:24N 39°45' W 074°07'0 0.0
2018-May-20 19:00N 39°45' W 074°07'0 0.0
2018-May-20 18:29N 39°45' W 074°07'0 0.0
2018-May-20 17:56N 39°45' W 074°07'0 0.0
2018-May-20 17:30N 39°45' W 074°07'0 0.0
2018-May-20 17:00N 39°45' W 074°07'0 0.3
2018-May-20 16:30N 39°45' W 074°07'1 1.8
2018-May-20 15:58N 39°46' W 074°07'0 0.0
2018-May-20 15:28N 39°46' W 074°07'0 0.0
2018-May-20 15:00N 39°46' W 074°07'1 1.6
2018-May-20 14:29N 39°45' W 074°07'0 0.5
2018-May-20 13:59N 39°45' W 074°07'0 0.0
2018-May-20 13:18N 39°45' W 074°07'0 0.0
2018-May-20 12:59N 39°45' W 074°07'0 0.0
2018-May-20 12:30N 39°45' W 074°07'0 0.0
2018-May-20 12:00N 39°45' W 074°07'0 0.0
2018-May-20 11:29N 39°45' W 074°07'0 0.0
2018-May-20 10:57N 39°45' W 074°07'0 0.0
2018-May-20 10:29N 39°45' W 074°07'0 0.0
2018-May-20 09:58N 39°45' W 074°07'0 0.0
2018-May-20 09:28N 39°45' W 074°07'0 0.0
2018-May-20 09:00N 39°45' W 074°07'0 0.0
2018-May-20 08:30N 39°45' W 074°07'0 0.0
2018-May-20 07:58N 39°45' W 074°07'0 0.0
2018-May-20 07:30N 39°45' W 074°07'0 0.0
2018-May-20 07:00N 39°45' W 074°07'0 0.0
2018-May-20 06:27N 39°45' W 074°07'0 0.0
2018-May-20 05:57N 39°45' W 074°07'0 0.0
2018-May-20 05:30N 39°45' W 074°07'0 0.0
2018-May-20 04:59N 39°45' W 074°07'0 0.0
2018-May-20 04:28N 39°45' W 074°07'0 0.0
2018-May-20 03:59N 39°45' W 074°07'0 0.0
2018-May-20 03:29N 39°45' W 074°07'0 0.0
2018-May-20 02:58N 39°45' W 074°07'0 0.0
2018-May-20 02:28N 39°45' W 074°07'0 0.0
2018-May-20 01:57N 39°45' W 074°07'0 0.0
2018-May-20 01:30N 39°45' W 074°07'0 0.0
2018-May-20 00:58N 39°45' W 074°07'0 0.0
2018-May-20 00:29N 39°45' W 074°07'0 0.0
2018-May-20 00:00N 39°45' W 074°07'0 0.0
2018-May-19 23:28N 39°45' W 074°07'0 0.0
2018-May-19 23:00N 39°45' W 074°07'0 0.0
2018-May-19 22:31N 39°45' W 074°07'0 0.0
2018-May-19 21:51N 39°45' W 074°07'0 0.0
2018-May-19 21:30N 39°45' W 074°07'0 0.0
2018-May-19 20:58N 39°45' W 074°07'0 0.0
2018-May-19 20:29N 39°45' W 074°07'0 0.0
2018-May-19 20:00N 39°45' W 074°07'0 0.0
2018-May-19 19:30N 39°45' W 074°07'0 0.0
2018-May-19 18:59N 39°45' W 074°07'0 0.0
2018-May-19 18:27N 39°45' W 074°07'0 0.0
2018-May-19 17:50N 39°45' W 074°07'0 0.0
2018-May-19 17:27N 39°45' W 074°07'0 0.0
2018-May-19 17:01N 39°45' W 074°07'0 0.0
2018-May-19 16:29N 39°45' W 074°07'0 0.0
2018-May-19 15:56N 39°45' W 074°07'0 0.0
2018-May-19 15:23N 39°45' W 074°07'0 0.0
2018-May-19 14:58N 39°45' W 074°07'0 0.0
2018-May-19 14:26N 39°45' W 074°07'0 0.0
2018-May-19 13:56N 39°45' W 074°07'0 0.0
2018-May-19 13:30N 39°45' W 074°07'0 0.0
2018-May-19 12:54N 39°45' W 074°07'0 0.0
2018-May-19 12:30N 39°45' W 074°07'0 0.0
2018-May-19 11:59N 39°45' W 074°07'0 0.0
2018-May-19 11:30N 39°45' W 074°07'0 0.0
2018-May-19 11:00N 39°45' W 074°07'0 0.0
2018-May-19 10:28N 39°45' W 074°07'0 0.0
2018-May-19 10:00N 39°45' W 074°07'0 0.0
2018-May-19 09:23N 39°45' W 074°07'0 0.0
2018-May-19 09:00N 39°45' W 074°07'0 0.0
2018-May-19 08:30N 39°45' W 074°07'0 0.0
2018-May-19 07:58N 39°45' W 074°07'0 0.0
2018-May-19 07:30N 39°45' W 074°07'0 0.0
2018-May-19 07:00N 39°45' W 074°07'0 0.0
2018-May-19 06:28N 39°45' W 074°07'0 0.0
2018-May-19 05:59N 39°45' W 074°07'0 0.0
2018-May-19 05:29N 39°45' W 074°07'0 0.0
2018-May-19 05:00N 39°45' W 074°07'0 0.0
2018-May-19 04:30N 39°45' W 074°07'0 0.0
2018-May-19 03:59N 39°45' W 074°07'0 0.0
2018-May-19 03:30N 39°45' W 074°07'0 0.0
2018-May-19 02:58N 39°45' W 074°07'0 0.0
2018-May-19 02:24N 39°45' W 074°07'0 0.0
2018-May-19 02:00N 39°45' W 074°07'0 0.0
2018-May-19 01:26N 39°45' W 074°07'0 0.0
2018-May-19 01:01N 39°45' W 074°07'0 0.0
2018-May-19 00:29N 39°45' W 074°07'0 0.0
2018-May-19 00:00N 39°45' W 074°07'0 0.0
2018-May-18 23:31N 39°45' W 074°07'0 0.0
2018-May-18 22:55N 39°45' W 074°07'0 0.0
2018-May-18 22:30N 39°45' W 074°07'0 0.0
2018-May-18 22:00N 39°45' W 074°07'0 0.0
2018-May-18 21:29N 39°45' W 074°07'0 0.0
2018-May-18 20:58N 39°45' W 074°07'0 0.0
2018-May-18 20:30N 39°45' W 074°07'0 0.0
2018-May-18 19:58N 39°45' W 074°07'0 0.0
2018-May-18 19:30N 39°45' W 074°07'0 0.0
2018-May-18 18:59N 39°45' W 074°07'0 0.0
2018-May-18 18:31N 39°45' W 074°07'0 0.0
2018-May-18 18:01N 39°45' W 074°07'0 0.0
2018-May-18 17:30N 39°45' W 074°07'0 0.0
2018-May-18 17:00N 39°45' W 074°07'0 0.0
2018-May-18 16:30N 39°45' W 074°07'0 0.0
2018-May-18 15:59N 39°45' W 074°07'0 0.0
2018-May-18 15:27N 39°45' W 074°07'0 0.0
2018-May-18 14:59N 39°45' W 074°07'0 0.0
2018-May-18 14:24N 39°45' W 074°07'0 0.0
2018-May-18 14:00N 39°45' W 074°07'0 0.0
2018-May-18 13:30N 39°45' W 074°07'0 0.0
2018-May-18 13:01N 39°45' W 074°07'0 0.0
2018-May-18 12:30N 39°45' W 074°07'0 0.0
2018-May-18 12:01N 39°45' W 074°07'0 0.0
2018-May-18 11:30N 39°45' W 074°07'0 0.0
2018-May-18 10:59N 39°45' W 074°07'0 0.0
2018-May-18 10:26N 39°45' W 074°07'0 0.0
2018-May-18 10:01N 39°45' W 074°07'0 0.0
2018-May-18 09:30N 39°45' W 074°07'0 0.0
2018-May-18 08:58N 39°45' W 074°07'0 0.0
2018-May-18 08:31N 39°45' W 074°07'0 0.0
2018-May-18 07:59N 39°45' W 074°07'0 0.0
2018-May-18 07:30N 39°45' W 074°07'0 0.0
2018-May-18 06:59N 39°45' W 074°07'0 0.0
2018-May-18 06:25N 39°45' W 074°07'0 0.0
2018-May-18 05:59N 39°45' W 074°07'0 0.0
2018-May-18 05:30N 39°45' W 074°07'0 0.0
2018-May-18 04:59N 39°45' W 074°07'0 0.0
2018-May-18 04:30N 39°45' W 074°07'0 0.0
2018-May-18 04:01N 39°45' W 074°07'0 0.0
2018-May-18 03:26N 39°45' W 074°07'0 0.0
2018-May-18 02:58N 39°45' W 074°07'0 0.0
2018-May-18 02:30N 39°45' W 074°07'0 0.0
2018-May-18 02:00N 39°45' W 074°07'0 0.0
2018-May-18 01:30N 39°45' W 074°07'0 0.0
2018-May-18 00:59N 39°45' W 074°07'0 0.0
2018-May-18 00:30N 39°45' W 074°07'0 0.0
2018-May-17 23:59N 39°45' W 074°07'0 0.0
2018-May-17 23:30N 39°45' W 074°07'0 0.0
2018-May-17 22:58N 39°45' W 074°07'0 0.0
2018-May-17 22:28N 39°45' W 074°07'0 0.0
2018-May-17 21:58N 39°45' W 074°07'0 0.0
2018-May-17 21:30N 39°45' W 074°07'0 0.0
2018-May-17 20:59N 39°45' W 074°07'0 0.0
2018-May-17 20:30N 39°45' W 074°07'0 0.0
2018-May-17 19:59N 39°45' W 074°07'0 0.0
2018-May-17 19:30N 39°45' W 074°07'0 0.0
2018-May-17 18:58N 39°45' W 074°07'0 0.0
2018-May-17 18:30N 39°45' W 074°07'1 1.5
2018-May-17 18:00N 39°46' W 074°07'0 0.0
2018-May-17 17:30N 39°46' W 074°07'0 0.0
2018-May-17 16:55N 39°46' W 074°07'0 0.0
2018-May-17 16:27N 39°46' W 074°07'1 1.8
2018-May-17 16:00N 39°46' W 074°06'2 4.3
2018-May-17 15:29N 39°44' W 074°04'4 7.7
2018-May-17 14:59N 39°41' W 074°07'4 8.2
2018-May-17 14:30N 39°37' W 074°10'4 8.0
2018-May-17 14:00N 39°34' W 074°13'1 1.0
2018-May-17 12:44N 39°35' W 074°12'2 8.2
2018-May-17 12:29N 39°37' W 074°10'4 7.9
2018-May-17 11:56N 39°41' W 074°08'4 8.1
2018-May-17 11:30N 39°44' W 074°06'2 4.5
2018-May-17 11:00N 39°46' W 074°06'0 0.9
2018-May-17 10:30N 39°46' W 074°07'1 1.6
2018-May-17 10:00N 39°45' W 074°07'0 0.0
2018-May-17 09:30N 39°45' W 074°07'0 0.0
2018-May-17 09:00N 39°45' W 074°07'0 0.0
2018-May-17 08:29N 39°45' W 074°07'0 0.0
2018-May-17 07:59N 39°45' W 074°07'0 0.0
2018-May-17 07:27N 39°45' W 074°07'0 0.0
2018-May-17 07:00N 39°45' W 074°07'0 0.0
2018-May-17 06:30N 39°45' W 074°07'0 0.0
2018-May-17 05:59N 39°45' W 074°07'0 0.0
2018-May-17 05:29N 39°45' W 074°07'0 0.0
2018-May-17 05:00N 39°45' W 074°07'0 0.0
2018-May-17 04:28N 39°45' W 074°07'0 0.0
2018-May-17 04:00N 39°45' W 074°07'0 0.0
2018-May-17 03:30N 39°45' W 074°07'0 0.0
2018-May-17 02:59N 39°45' W 074°07'0 0.0
2018-May-17 02:30N 39°45' W 074°07'0 0.0
2018-May-17 02:00N 39°45' W 074°07'0 0.0
2018-May-17 01:27N 39°45' W 074°07'0 0.0
2018-May-17 01:00N 39°45' W 074°07'0 0.0
2018-May-17 00:29N 39°45' W 074°07'0 0.0
2018-May-16 23:59N 39°45' W 074°07'0 0.0
2018-May-16 23:28N 39°45' W 074°07'0 0.0
2018-May-16 22:56N 39°45' W 074°07'0 0.0
2018-May-16 22:29N 39°45' W 074°07'0 0.0
2018-May-16 22:00N 39°45' W 074°07'0 0.0
2018-May-16 21:30N 39°45' W 074°07'0 0.0
2018-May-16 21:00N 39°45' W 074°07'0 0.0
2018-May-16 20:30N 39°45' W 074°07'0 0.0
2018-May-16 19:59N 39°45' W 074°07'0 0.0
2018-May-16 19:30N 39°45' W 074°07'0 0.0
2018-May-16 18:59N 39°45' W 074°07'0 0.0
2018-May-16 18:26N 39°45' W 074°07'0 0.0
2018-May-16 17:59N 39°45' W 074°07'0 0.0
2018-May-16 17:28N 39°45' W 074°07'0 0.0
2018-May-16 16:56N 39°45' W 074°07'0 0.0
2018-May-16 16:28N 39°45' W 074°07'0 0.0
2018-May-16 15:55N 39°45' W 074°07'0 0.0
2018-May-16 15:30N 39°45' W 074°07'0 0.0
2018-May-16 15:00N 39°45' W 074°07'0 0.0
2018-May-16 14:30N 39°45' W 074°07'0 0.0
2018-May-16 13:58N 39°45' W 074°07'0 0.0
2018-May-16 13:29N 39°45' W 074°07'0 0.0
2018-May-16 13:00N 39°45' W 074°07'0 0.0
2018-May-16 12:30N 39°45' W 074°07'0 0.0
2018-May-16 12:00N 39°45' W 074°07'0 0.0
2018-May-16 11:29N 39°45' W 074°07'0 0.0
2018-May-16 11:00N 39°45' W 074°07'0 0.0
2018-May-16 10:29N 39°45' W 074°07'0 0.0
2018-May-16 09:59N 39°45' W 074°07'0 0.0
2018-May-16 09:28N 39°45' W 074°07'0 0.0
2018-May-16 08:59N 39°45' W 074°07'0 0.0
2018-May-16 08:23N 39°45' W 074°07'0 0.0
2018-May-16 07:57N 39°45' W 074°07'0 0.0
2018-May-16 07:27N 39°45' W 074°07'0 0.0
2018-May-16 06:56N 39°45' W 074°07'0 0.0
2018-May-16 06:29N 39°45' W 074°07'0 0.0
2018-May-16 05:58N 39°45' W 074°07'0 0.0
2018-May-16 05:30N 39°45' W 074°07'0 0.0
2018-May-16 05:00N 39°45' W 074°07'0 0.0
2018-May-16 04:30N 39°45' W 074°07'  
Track history (hours):
 
Tides and Currents Weather Stations Pressure Air Temp Water Temp Dewpoint Dewpoint Depression Visibility Wind Speed Wind Dir Waves Ship Positions

Candace

Owner: WEEKS MARINE, INC., CRANFORD, NJ. More information available from US FCC via Universal Licensing System and Coast Guard Vessel Documentation Center.

Last reported at 2018-May-26 04:00 UTC. Time now 2018-May-26 04:05 UTC.
Position N 39°41' W 074°03'.

Length 20 m.

Type: Towing. MMSI: 366955450.

Date/timePositionNaut miles runAvg speedWind from/ knotsBaromVisibWave heightAir tempDewpointWater temp
2018-May-26 04:00N 39°41' W 074°03'0 0.0
2018-May-26 03:29N 39°41' W 074°03'0 0.0
2018-May-26 02:56N 39°41' W 074°03'0 0.0
2018-May-26 02:26N 39°41' W 074°03'0 0.0
2018-May-26 02:00N 39°41' W 074°03'0 0.0
2018-May-26 01:29N 39°41' W 074°03'0 0.0
2018-May-26 00:56N 39°41' W 074°03'0 0.0
2018-May-26 00:30N 39°41' W 074°03'0 0.0
2018-May-26 00:00N 39°41' W 074°03'0 0.0
2018-May-25 23:27N 39°41' W 074°03'0 0.0
2018-May-25 22:55N 39°41' W 074°03'0 0.0
2018-May-25 22:30N 39°41' W 074°03'0 0.0
2018-May-25 21:58N 39°41' W 074°03'0 0.5
2018-May-25 21:31N 39°41' W 074°03'0 0.1
2018-May-25 21:00N 39°41' W 074°03'0 0.1
2018-May-25 20:30N 39°41' W 074°03'0 0.3
2018-May-25 20:00N 39°41' W 074°03'0 0.3
2018-May-25 19:30N 39°41' W 074°03'0 0.1
2018-May-25 19:00N 39°41' W 074°03'0 0.0
2018-May-25 18:30N 39°41' W 074°03'0 0.0
2018-May-25 17:59N 39°41' W 074°03'0 0.0
2018-May-25 17:30N 39°41' W 074°03'0 0.1
2018-May-25 17:00N 39°41' W 074°03'0 0.1
2018-May-25 16:29N 39°41' W 074°03'0 0.1
2018-May-25 16:00N 39°41' W 074°03'1 1.8
2018-May-25 15:30N 39°41' W 074°03'1 1.0
2018-May-25 15:00N 39°41' W 074°03'0 0.2
2018-May-25 14:27N 39°41' W 074°03'0 0.6
2018-May-25 14:00N 39°41' W 074°03'2 3.9
2018-May-25 13:30N 39°42' W 074°05'2 3.0
2018-May-25 13:00N 39°43' W 074°05'2 3.6
2018-May-25 12:30N 39°45' W 074°04'2 3.6
2018-May-25 11:57N 39°46' W 074°06'0 0.5
2018-May-25 11:30N 39°46' W 074°07'1 1.6
2018-May-25 10:59N 39°45' W 074°07'0 0.0
2018-May-25 10:30N 39°45' W 074°07'0 0.0
2018-May-25 10:01N 39°45' W 074°07'0 0.0
2018-May-25 09:29N 39°45' W 074°07'0 0.0
2018-May-25 09:00N 39°45' W 074°07'0 0.0
2018-May-25 08:30N 39°45' W 074°07'0 0.0
2018-May-25 08:00N 39°45' W 074°07'0 0.0
2018-May-25 07:29N 39°45' W 074°07'0 0.0
2018-May-25 07:00N 39°45' W 074°07'0 0.0
2018-May-25 06:30N 39°45' W 074°07'0 0.0
2018-May-25 06:00N 39°45' W 074°07'0 0.0
2018-May-25 05:30N 39°45' W 074°07'0 0.0
2018-May-25 05:00N 39°45' W 074°07'0 0.0
2018-May-25 04:30N 39°45' W 074°07'0 0.0
2018-May-25 04:00N 39°45' W 074°07'0 0.0
2018-May-25 03:29N 39°45' W 074°07'0 0.0
2018-May-25 03:00N 39°45' W 074°07'0 0.0
2018-May-25 02:30N 39°45' W 074°07'0 0.0
2018-May-25 02:01N 39°45' W 074°07'0 0.0
2018-May-25 01:30N 39°45' W 074°07'0 0.0
2018-May-25 01:00N 39°45' W 074°07'0 0.0
2018-May-25 00:29N 39°45' W 074°07'0 0.0
2018-May-24 23:57N 39°45' W 074°07'0 0.0
2018-May-24 23:30N 39°45' W 074°07'0 0.0
2018-May-24 23:00N 39°45' W 074°07'0 0.0
2018-May-24 22:29N 39°45' W 074°07'0 0.0
2018-May-24 22:00N 39°45' W 074°07'0 0.0
2018-May-24 21:26N 39°45' W 074°07'0 0.0
2018-May-24 20:53N 39°45' W 074°07'0 0.0
2018-May-24 20:28N 39°45' W 074°07'0 0.0
2018-May-24 19:56N 39°45' W 074°07'0 0.0
2018-May-24 19:22N 39°45' W 074°07'0 0.0
2018-May-24 19:00N 39°45' W 074°07'0 0.0
2018-May-24 18:29N 39°45' W 074°07'0 0.0
2018-May-24 17:58N 39°45' W 074°07'1 1.5
2018-May-24 17:30N 39°46' W 074°07'2 4.5
2018-May-24 17:00N 39°45' W 074°04'3 6.2
2018-May-24 16:29N 39°42' W 074°06'1 2.6
2018-May-24 16:00N 39°41' W 074°07'0 0.2
2018-May-24 15:29N 39°41' W 074°07'0 0.3
2018-May-24 15:00N 39°41' W 074°07'0 0.2
2018-May-24 14:30N 39°41' W 074°07'0 0.3
2018-May-24 13:58N 39°41' W 074°07'2 3.6
2018-May-24 13:29N 39°43' W 074°06'3 0.6
2018-May-24 08:58N 39°45' W 074°07'0 0.0
2018-May-24 08:29N 39°45' W 074°07'0 0.0
2018-May-24 07:59N 39°45' W 074°07'0 0.0
2018-May-24 07:29N 39°45' W 074°07'0 0.0
2018-May-24 07:00N 39°45' W 074°07'0 0.0
2018-May-24 06:30N 39°45' W 074°07'0 0.0
2018-May-24 05:58N 39°45' W 074°07'0 0.0
2018-May-24 05:28N 39°45' W 074°07'0 0.0
2018-May-24 05:00N 39°45' W 074°07'0 0.0
2018-May-24 04:30N 39°45' W 074°07'0 0.0
2018-May-24 03:59N 39°45' W 074°07'0 0.0
2018-May-24 03:28N 39°45' W 074°07'0 0.0
2018-May-24 02:58N 39°45' W 074°07'0 0.0
2018-May-24 02:25N 39°45' W 074°07'0 0.0
2018-May-24 02:00N 39°45' W 074°07'0 0.0
2018-May-24 01:30N 39°45' W 074°07'0 0.0
2018-May-24 00:57N 39°45' W 074°07'0 0.0
2018-May-24 00:29N 39°45' W 074°07'0 0.0
2018-May-24 00:00N 39°45' W 074°07'0 0.0
2018-May-23 23:26N 39°45' W 074°07'0 0.0
2018-May-23 23:00N 39°45' W 074°07'0 0.0
2018-May-23 22:27N 39°45' W 074°07'0 0.0
2018-May-23 21:59N 39°45' W 074°07'0 0.0
2018-May-23 21:29N 39°45' W 074°07'0 0.0
2018-May-23 21:00N 39°45' W 074°07'0 0.0
2018-May-23 20:30N 39°45' W 074°07'2 3.0
2018-May-23 19:58N 39°45' W 074°05'3 6.3
2018-May-23 19:28N 39°42' W 074°03'1 3.1
2018-May-23 19:00N 39°41' W 074°03'0 0.7
2018-May-23 18:29N 39°40' W 074°03'2 3.1
2018-May-23 17:55N 39°41' W 074°06'2 3.9
2018-May-23 17:29N 39°43' W 074°06'2 3.7
2018-May-23 17:00N 39°44' W 074°04'2 4.5
2018-May-23 16:30N 39°45' W 074°02'2 4.6
2018-May-23 16:00N 39°48' W 074°02'3 4.6
2018-May-23 15:25N 39°50' W 074°01'6 0.5
2018-May-23 02:11N 39°46' W 074°07'0 0.0
2018-May-23 01:57N 39°46' W 074°07'0 0.0
2018-May-23 01:27N 39°46' W 074°07'0 0.0
2018-May-23 00:58N 39°46' W 074°07'0 0.0
2018-May-23 00:30N 39°46' W 074°07'0 0.0
2018-May-22 23:46N 39°46' W 074°07'0 0.0
2018-May-22 23:27N 39°46' W 074°07'0 0.0
2018-May-22 22:41N 39°46' W 074°07'0 0.0
2018-May-22 22:30N 39°46' W 074°07'0 0.0
2018-May-22 21:57N 39°46' W 074°07'0 0.0
2018-May-22 21:26N 39°46' W 074°07'0 0.0
2018-May-22 21:00N 39°46' W 074°07'0 0.0
2018-May-22 20:30N 39°46' W 074°07'0 0.0
2018-May-22 19:58N 39°46' W 074°07'0 0.0
2018-May-22 19:28N 39°46' W 074°07'0 0.1
2018-May-22 19:00N 39°46' W 074°07'0 0.1
2018-May-22 18:26N 39°46' W 074°07'0 0.8
2018-May-22 18:00N 39°46' W 074°07'3 4.8
2018-May-22 17:28N 39°45' W 074°04'4 7.4
2018-May-22 16:57N 39°41' W 074°04'0 1.0
2018-May-22 16:30N 39°41' W 074°04'1 1.0
2018-May-22 15:59N 39°40' W 074°04'1 2.3
2018-May-22 15:25N 39°41' W 074°06'2 4.0
2018-May-22 14:59N 39°40' W 074°08'2 4.5
2018-May-22 14:29N 39°38' W 074°09'2 4.4
2018-May-22 13:55N 39°36' W 074°11'2 4.3
2018-May-22 13:30N 39°34' W 074°12'3 4.1
2018-May-22 12:53N 39°32' W 074°14'1 0.4
2018-May-22 10:34N 39°32' W 074°14'0 0.4
2018-May-22 10:30N 39°32' W 074°14'2 4.9
2018-May-22 10:00N 39°34' W 074°12'4 8.5
2018-May-22 09:30N 39°37' W 074°09'4 7.4
2018-May-22 09:00N 39°41' W 074°07'4 7.2
2018-May-22 08:30N 39°44' W 074°05'2 3.9
2018-May-22 07:57N 39°46' W 074°06'1 1.9
2018-May-22 07:30N 39°46' W 074°07'0 0.7
2018-May-22 07:00N 39°46' W 074°07'1 1.1
2018-May-22 06:30N 39°45' W 074°07'0 0.0
2018-May-22 06:00N 39°45' W 074°07'0 0.0
2018-May-22 05:30N 39°45' W 074°07'0 0.0
2018-May-22 05:00N 39°45' W 074°07'0 0.0
2018-May-22 04:30N 39°45' W 074°07'0 0.0
2018-May-22 04:00N 39°45' W 074°07'0 0.0
2018-May-22 03:30N 39°45' W 074°07'0 0.0
2018-May-22 03:00N 39°45' W 074°07'0 0.0
2018-May-22 02:30N 39°45' W 074°07'0 0.0
2018-May-22 02:00N 39°45' W 074°07'0 0.0
2018-May-22 01:29N 39°45' W 074°07'0 0.0
2018-May-22 00:56N 39°45' W 074°07'0 0.0
2018-May-22 00:29N 39°45' W 074°07'0 0.0
2018-May-22 00:00N 39°45' W 074°07'0 0.0
2018-May-21 23:28N 39°45' W 074°07'0 0.0
2018-May-21 22:54N 39°45' W 074°07'0 0.0
2018-May-21 22:28N 39°45' W 074°07'0 0.0
2018-May-21 21:58N 39°45' W 074°07'0 0.0
2018-May-21 21:30N 39°45' W 074°07'0 0.0
2018-May-21 21:01N 39°45' W 074°07'0 0.0
2018-May-21 20:29N 39°45' W 074°07'0 0.0
2018-May-21 20:00N 39°45' W 074°07'0 0.0
2018-May-21 19:29N 39°45' W 074°07'0 0.0
2018-May-21 18:54N 39°45' W 074°07'0 0.0
2018-May-21 18:29N 39°45' W 074°07'0 0.0
2018-May-21 18:00N 39°45' W 074°07'0 0.0
2018-May-21 17:29N 39°45' W 074°07'0 0.0
2018-May-21 16:54N 39°45' W 074°07'0 0.0
2018-May-21 16:26N 39°45' W 074°07'0 0.0
2018-May-21 15:59N 39°45' W 074°07'0 0.0
2018-May-21 15:29N 39°45' W 074°07'0 0.0
2018-May-21 15:00N 39°45' W 074°07'0 0.0
2018-May-21 14:30N 39°45' W 074°07'0 0.0
2018-May-21 13:59N 39°45' W 074°07'0 0.0
2018-May-21 13:31N 39°45' W 074°07'0 0.0
2018-May-21 12:59N 39°45' W 074°07'0 0.0
2018-May-21 12:30N 39°45' W 074°07'0 0.0
2018-May-21 12:00N 39°45' W 074°07'0 0.0
2018-May-21 11:30N 39°45' W 074°07'0 0.0
2018-May-21 10:59N 39°45' W 074°07'0 0.0
2018-May-21 10:28N 39°45' W 074°07'0 0.0
2018-May-21 10:00N 39°45' W 074°07'0 0.0
2018-May-21 09:29N 39°45' W 074°07'0 0.0
2018-May-21 08:57N 39°45' W 074°07'0 0.0
2018-May-21 08:29N 39°45' W 074°07'0 0.0
2018-May-21 08:00N 39°45' W 074°07'0 0.0
2018-May-21 07:29N 39°45' W 074°07'0 0.0
2018-May-21 07:00N 39°45' W 074°07'0 0.0
2018-May-21 06:29N 39°45' W 074°07'0 0.0
2018-May-21 06:00N 39°45' W 074°07'0 0.0
2018-May-21 05:30N 39°45' W 074°07'0 0.0
2018-May-21 04:59N 39°45' W 074°07'0 0.0
2018-May-21 04:27N 39°45' W 074°07'0 0.0
2018-May-21 03:57N 39°45' W 074°07'0 0.0
2018-May-21 03:29N 39°45' W 074°07'0 0.0
2018-May-21 02:59N 39°45' W 074°07'0 0.0
2018-May-21 02:30N 39°45' W 074°07'0 0.0
2018-May-21 02:00N 39°45' W 074°07'0 0.0
2018-May-21 01:28N 39°45' W 074°07'0 0.0
2018-May-21 01:00N 39°45' W 074°07'0 0.0
2018-May-21 00:27N 39°45' W 074°07'0 0.0
2018-May-20 23:59N 39°45' W 074°07'0 0.0
2018-May-20 23:28N 39°45' W 074°07'0 0.0
2018-May-20 22:58N 39°45' W 074°07'0 0.0
2018-May-20 22:30N 39°45' W 074°07'0 0.0
2018-May-20 22:00N 39°45' W 074°07'0 0.0
2018-May-20 21:28N 39°45' W 074°07'0 0.0
2018-May-20 20:59N 39°45' W 074°07'0 0.0
2018-May-20 20:27N 39°45' W 074°07'0 0.0
2018-May-20 19:58N 39°45' W 074°07'0 0.0
2018-May-20 19:24N 39°45' W 074°07'0 0.0
2018-May-20 19:00N 39°45' W 074°07'0 0.0
2018-May-20 18:29N 39°45' W 074°07'0 0.0
2018-May-20 17:56N 39°45' W 074°07'0 0.0
2018-May-20 17:30N 39°45' W 074°07'0 0.0
2018-May-20 17:00N 39°45' W 074°07'0 0.3
2018-May-20 16:30N 39°45' W 074°07'1 1.8
2018-May-20 15:58N 39°46' W 074°07'0 0.0
2018-May-20 15:28N 39°46' W 074°07'0 0.0
2018-May-20 15:00N 39°46' W 074°07'1 1.6
2018-May-20 14:29N 39°45' W 074°07'0 0.5
2018-May-20 13:59N 39°45' W 074°07'0 0.0
2018-May-20 13:18N 39°45' W 074°07'0 0.0
2018-May-20 12:59N 39°45' W 074°07'0 0.0
2018-May-20 12:30N 39°45' W 074°07'0 0.0
2018-May-20 12:00N 39°45' W 074°07'0 0.0
2018-May-20 11:29N 39°45' W 074°07'0 0.0
2018-May-20 10:57N 39°45' W 074°07'0 0.0
2018-May-20 10:29N 39°45' W 074°07'0 0.0
2018-May-20 09:58N 39°45' W 074°07'0 0.0
2018-May-20 09:28N 39°45' W 074°07'0 0.0
2018-May-20 09:00N 39°45' W 074°07'0 0.0
2018-May-20 08:30N 39°45' W 074°07'0 0.0
2018-May-20 07:58N 39°45' W 074°07'0 0.0
2018-May-20 07:30N 39°45' W 074°07'0 0.0
2018-May-20 07:00N 39°45' W 074°07'0 0.0
2018-May-20 06:27N 39°45' W 074°07'0 0.0
2018-May-20 05:57N 39°45' W 074°07'0 0.0
2018-May-20 05:30N 39°45' W 074°07'0 0.0
2018-May-20 04:59N 39°45' W 074°07'0 0.0
2018-May-20 04:28N 39°45' W 074°07'0 0.0
2018-May-20 03:59N 39°45' W 074°07'0 0.0
2018-May-20 03:29N 39°45' W 074°07'0 0.0
2018-May-20 02:58N 39°45' W 074°07'0 0.0
2018-May-20 02:28N 39°45' W 074°07'0 0.0
2018-May-20 01:57N 39°45' W 074°07'0 0.0
2018-May-20 01:30N 39°45' W 074°07'0 0.0
2018-May-20 00:58N 39°45' W 074°07'0 0.0
2018-May-20 00:29N 39°45' W 074°07'0 0.0
2018-May-20 00:00N 39°45' W 074°07'0 0.0
2018-May-19 23:28N 39°45' W 074°07'0 0.0
2018-May-19 23:00N 39°45' W 074°07'0 0.0
2018-May-19 22:31N 39°45' W 074°07'0 0.0
2018-May-19 21:51N 39°45' W 074°07'0 0.0
2018-May-19 21:30N 39°45' W 074°07'0 0.0
2018-May-19 20:58N 39°45' W 074°07'0 0.0
2018-May-19 20:29N 39°45' W 074°07'0 0.0
2018-May-19 20:00N 39°45' W 074°07'0 0.0
2018-May-19 19:30N 39°45' W 074°07'0 0.0
2018-May-19 18:59N 39°45' W 074°07'0 0.0
2018-May-19 18:27N 39°45' W 074°07'0 0.0
2018-May-19 17:50N 39°45' W 074°07'0 0.0
2018-May-19 17:27N 39°45' W 074°07'0 0.0
2018-May-19 17:01N 39°45' W 074°07'0 0.0
2018-May-19 16:29N 39°45' W 074°07'0 0.0
2018-May-19 15:56N 39°45' W 074°07'0 0.0
2018-May-19 15:23N 39°45' W 074°07'0 0.0
2018-May-19 14:58N 39°45' W 074°07'0 0.0
2018-May-19 14:26N 39°45' W 074°07'0 0.0
2018-May-19 13:56N 39°45' W 074°07'0 0.0
2018-May-19 13:30N 39°45' W 074°07'0 0.0
2018-May-19 12:54N 39°45' W 074°07'0 0.0
2018-May-19 12:30N 39°45' W 074°07'0 0.0
2018-May-19 11:59N 39°45' W 074°07'0 0.0
2018-May-19 11:30N 39°45' W 074°07'0 0.0
2018-May-19 11:00N 39°45' W 074°07'0 0.0
2018-May-19 10:28N 39°45' W 074°07'0 0.0
2018-May-19 10:00N 39°45' W 074°07'0 0.0
2018-May-19 09:23N 39°45' W 074°07'0 0.0
2018-May-19 09:00N 39°45' W 074°07'0 0.0
2018-May-19 08:30N 39°45' W 074°07'0 0.0
2018-May-19 07:58N 39°45' W 074°07'0 0.0
2018-May-19 07:30N 39°45' W 074°07'0 0.0
2018-May-19 07:00N 39°45' W 074°07'0 0.0
2018-May-19 06:28N 39°45' W 074°07'0 0.0
2018-May-19 05:59N 39°45' W 074°07'0 0.0
2018-May-19 05:29N 39°45' W 074°07'0 0.0
2018-May-19 05:00N 39°45' W 074°07'0 0.0
2018-May-19 04:30N 39°45' W 074°07'0 0.0
2018-May-19 03:59N 39°45' W 074°07'0 0.0
2018-May-19 03:30N 39°45' W 074°07'0 0.0
2018-May-19 02:58N 39°45' W 074°07'0 0.0
2018-May-19 02:24N 39°45' W 074°07'0 0.0
2018-May-19 02:00N 39°45' W 074°07'0 0.0
2018-May-19 01:26N 39°45' W 074°07'0 0.0
2018-May-19 01:01N 39°45' W 074°07'0 0.0
2018-May-19 00:29N 39°45' W 074°07'0 0.0
2018-May-19 00:00N 39°45' W 074°07'0 0.0
2018-May-18 23:31N 39°45' W 074°07'0 0.0
2018-May-18 22:55N 39°45' W 074°07'0 0.0
2018-May-18 22:30N 39°45' W 074°07'0 0.0
2018-May-18 22:00N 39°45' W 074°07'0 0.0
2018-May-18 21:29N 39°45' W 074°07'0 0.0
2018-May-18 20:58N 39°45' W 074°07'0 0.0
2018-May-18 20:30N 39°45' W 074°07'0 0.0
2018-May-18 19:58N 39°45' W 074°07'0 0.0
2018-May-18 19:30N 39°45' W 074°07'0 0.0
2018-May-18 18:59N 39°45' W 074°07'0 0.0
2018-May-18 18:31N 39°45' W 074°07'0 0.0
2018-May-18 18:01N 39°45' W 074°07'0 0.0
2018-May-18 17:30N 39°45' W 074°07'0 0.0
2018-May-18 17:00N 39°45' W 074°07'0 0.0
2018-May-18 16:30N 39°45' W 074°07'0 0.0
2018-May-18 15:59N 39°45' W 074°07'0 0.0
2018-May-18 15:27N 39°45' W 074°07'0 0.0
2018-May-18 14:59N 39°45' W 074°07'0 0.0
2018-May-18 14:24N 39°45' W 074°07'0 0.0
2018-May-18 14:00N 39°45' W 074°07'0 0.0
2018-May-18 13:30N 39°45' W 074°07'0 0.0
2018-May-18 13:01N 39°45' W 074°07'0 0.0
2018-May-18 12:30N 39°45' W 074°07'0 0.0
2018-May-18 12:01N 39°45' W 074°07'0 0.0
2018-May-18 11:30N 39°45' W 074°07'0 0.0
2018-May-18 10:59N 39°45' W 074°07'0 0.0
2018-May-18 10:26N 39°45' W 074°07'0 0.0
2018-May-18 10:01N 39°45' W 074°07'0 0.0
2018-May-18 09:30N 39°45' W 074°07'0 0.0
2018-May-18 08:58N 39°45' W 074°07'0 0.0
2018-May-18 08:31N 39°45' W 074°07'0 0.0
2018-May-18 07:59N 39°45' W 074°07'0 0.0
2018-May-18 07:30N 39°45' W 074°07'0 0.0
2018-May-18 06:59N 39°45' W 074°07'0 0.0
2018-May-18 06:25N 39°45' W 074°07'0 0.0
2018-May-18 05:59N 39°45' W 074°07'0 0.0
2018-May-18 05:30N 39°45' W 074°07'0 0.0
2018-May-18 04:59N 39°45' W 074°07'0 0.0
2018-May-18 04:30N 39°45' W 074°07'0 0.0
2018-May-18 04:01N 39°45' W 074°07'0 0.0
2018-May-18 03:26N 39°45' W 074°07'0 0.0
2018-May-18 02:58N 39°45' W 074°07'0 0.0
2018-May-18 02:30N 39°45' W 074°07'0 0.0
2018-May-18 02:00N 39°45' W 074°07'0 0.0
2018-May-18 01:30N 39°45' W 074°07'0 0.0
2018-May-18 00:59N 39°45' W 074°07'0 0.0
2018-May-18 00:30N 39°45' W 074°07'0 0.0
2018-May-17 23:59N 39°45' W 074°07'0 0.0
2018-May-17 23:30N 39°45' W 074°07'0 0.0
2018-May-17 22:58N 39°45' W 074°07'0 0.0
2018-May-17 22:28N 39°45' W 074°07'0 0.0
2018-May-17 21:58N 39°45' W 074°07'0 0.0
2018-May-17 21:30N 39°45' W 074°07'0 0.0
2018-May-17 20:59N 39°45' W 074°07'0 0.0
2018-May-17 20:30N 39°45' W 074°07'0 0.0
2018-May-17 19:59N 39°45' W 074°07'0 0.0
2018-May-17 19:30N 39°45' W 074°07'0 0.0
2018-May-17 18:58N 39°45' W 074°07'0 0.0
2018-May-17 18:30N 39°45' W 074°07'1 1.5
2018-May-17 18:00N 39°46' W 074°07'0 0.0
2018-May-17 17:30N 39°46' W 074°07'0 0.0
2018-May-17 16:55N 39°46' W 074°07'0 0.0
2018-May-17 16:27N 39°46' W 074°07'1 1.8
2018-May-17 16:00N 39°46' W 074°06'2 4.3
2018-May-17 15:29N 39°44' W 074°04'4 7.7
2018-May-17 14:59N 39°41' W 074°07'4 8.2
2018-May-17 14:30N 39°37' W 074°10'4 8.0
2018-May-17 14:00N 39°34' W 074°13'1 1.0
2018-May-17 12:44N 39°35' W 074°12'2 8.2
2018-May-17 12:29N 39°37' W 074°10'4 7.9
2018-May-17 11:56N 39°41' W 074°08'4 8.1
2018-May-17 11:30N 39°44' W 074°06'2 4.5
2018-May-17 11:00N 39°46' W 074°06'0 0.9
2018-May-17 10:30N 39°46' W 074°07'1 1.6
2018-May-17 10:00N 39°45' W 074°07'0 0.0
2018-May-17 09:30N 39°45' W 074°07'0 0.0
2018-May-17 09:00N 39°45' W 074°07'0 0.0
2018-May-17 08:29N 39°45' W 074°07'0 0.0
2018-May-17 07:59N 39°45' W 074°07'0 0.0
2018-May-17 07:27N 39°45' W 074°07'0 0.0
2018-May-17 07:00N 39°45' W 074°07'0 0.0
2018-May-17 06:30N 39°45' W 074°07'0 0.0
2018-May-17 05:59N 39°45' W 074°07'0 0.0
2018-May-17 05:29N 39°45' W 074°07'0 0.0
2018-May-17 05:00N 39°45' W 074°07'0 0.0
2018-May-17 04:28N 39°45' W 074°07'0 0.0
2018-May-17 04:00N 39°45' W 074°07'0 0.0
2018-May-17 03:30N 39°45' W 074°07'0 0.0
2018-May-17 02:59N 39°45' W 074°07'0 0.0
2018-May-17 02:30N 39°45' W 074°07'0 0.0
2018-May-17 02:00N 39°45' W 074°07'0 0.0
2018-May-17 01:27N 39°45' W 074°07'0 0.0
2018-May-17 01:00N 39°45' W 074°07'0 0.0
2018-May-17 00:29N 39°45' W 074°07'0 0.0
2018-May-16 23:59N 39°45' W 074°07'0 0.0
2018-May-16 23:28N 39°45' W 074°07'0 0.0
2018-May-16 22:56N 39°45' W 074°07'0 0.0
2018-May-16 22:29N 39°45' W 074°07'0 0.0
2018-May-16 22:00N 39°45' W 074°07'0 0.0
2018-May-16 21:30N 39°45' W 074°07'0 0.0
2018-May-16 21:00N 39°45' W 074°07'0 0.0
2018-May-16 20:30N 39°45' W 074°07'0 0.0
2018-May-16 19:59N 39°45' W 074°07'0 0.0
2018-May-16 19:30N 39°45' W 074°07'0 0.0
2018-May-16 18:59N 39°45' W 074°07'0 0.0
2018-May-16 18:26N 39°45' W 074°07'0 0.0
2018-May-16 17:59N 39°45' W 074°07'0 0.0
2018-May-16 17:28N 39°45' W 074°07'0 0.0
2018-May-16 16:56N 39°45' W 074°07'0 0.0
2018-May-16 16:28N 39°45' W 074°07'0 0.0
2018-May-16 15:55N 39°45' W 074°07'0 0.0
2018-May-16 15:30N 39°45' W 074°07'0 0.0
2018-May-16 15:00N 39°45' W 074°07'0 0.0
2018-May-16 14:30N 39°45' W 074°07'0 0.0
2018-May-16 13:58N 39°45' W 074°07'0 0.0
2018-May-16 13:29N 39°45' W 074°07'0 0.0
2018-May-16 13:00N 39°45' W 074°07'0 0.0
2018-May-16 12:30N 39°45' W 074°07'0 0.0
2018-May-16 12:00N 39°45' W 074°07'0 0.0
2018-May-16 11:29N 39°45' W 074°07'0 0.0
2018-May-16 11:00N 39°45' W 074°07'0 0.0
2018-May-16 10:29N 39°45' W 074°07'0 0.0
2018-May-16 09:59N 39°45' W 074°07'0 0.0
2018-May-16 09:28N 39°45' W 074°07'0 0.0
2018-May-16 08:59N 39°45' W 074°07'0 0.0
2018-May-16 08:23N 39°45' W 074°07'0 0.0
2018-May-16 07:57N 39°45' W 074°07'0 0.0
2018-May-16 07:27N 39°45' W 074°07'0 0.0
2018-May-16 06:56N 39°45' W 074°07'0 0.0
2018-May-16 06:29N 39°45' W 074°07'0 0.0
2018-May-16 05:58N 39°45' W 074°07'0 0.0
2018-May-16 05:30N 39°45' W 074°07'0 0.0
2018-May-16 05:00N 39°45' W 074°07'0 0.0
2018-May-16 04:30N 39°45' W 074°07'  

Dump ship's entire track history